Time;durP1;ratioP1;P1;durP2;ratioP2;P2;SDS_P1;SDS_P2;PMS_P1;PMS_P2;Temp;Humidity;BMP_temperature;BMP_pressure;BME280_temperature;BME280_humidity;BME280_pressure;Samples;Min_cycle;Max_cycle;Signal;HPM_P1;HPM_P2
2022/10/14 00:00:07;;;;;;;;;;;;;;;;;;351562;28;907;-65
2022/10/14 00:00:18;;;;;;;;;;;;;;;;;;351434;28;912;-65
2022/10/14 00:00:28;;;;;;;;;;;;;;;;;;351456;28;1077;-65
2022/10/14 00:00:39;;;;;;;;;;;;;;;;;;350736;28;1422;-65
2022/10/14 00:00:49;;;;;;;;;;;;;;;;;;351034;28;1550;-65
2022/10/14 00:01:00;;;;;;;;;;;;;;;;;;351433;28;920;-65
2022/10/14 00:01:15;;;;;;;;;;;;;;;;;;351559;28;987;-65
2022/10/14 00:01:26;;;;;;;;;;;;;;;;;;351488;28;1006;-65
2022/10/14 00:01:36;;;;;;;;;;;;;;;;;;350892;28;1600;-65
2022/10/14 00:01:47;;;;;;;;;;;;;;;;;;350623;28;1745;-65
2022/10/14 00:01:57;;;;;;;;;;;;;;;;;;351492;28;1007;-65
2022/10/14 00:02:07;;;;;;;;;;;;;;;;;;351452;28;943;-65
2022/10/14 00:02:17;;;;;;;;;;;;;;;;;;349911;28;1795;-65
2022/10/14 00:02:28;;;;;;;;;;;;;;;;;;350593;28;929;-65
2022/10/14 00:02:38;;;;;;;;;;;;;;;;;;350780;28;1517;-65
2022/10/14 00:02:48;;;;;;;;;;;;;;;;;;351454;28;936;-65
2022/10/14 00:02:58;;;;;;;;;;;;;;;;;;351511;28;868;-65
2022/10/14 00:03:09;;;;;;;;;;;;;;;;;;351513;28;979;-65
2022/10/14 00:03:19;;;;;;;;;;;;;;;;;;351513;28;1027;-65
2022/10/14 00:03:29;;;;;;;;;;;;;;;;;;351452;28;908;-65
2022/10/14 00:03:40;;;;;;;;;;;;;;;;;;351491;28;971;-65
2022/10/14 00:03:50;;;;;;;;;;;;;;;;;;351488;28;999;-65
2022/10/14 00:04:01;;;;;;;;;;;;;;;;;;351424;28;1521;-65
2022/10/14 00:04:11;;;;;;;;;;;;;;;;;;351486;28;1794;-65
2022/10/14 00:04:21;;;;;;;;;;;;;;;;;;351416;28;975;-65
2022/10/14 00:04:31;;;;;;;;;;;;;;;;;;351521;28;833;-65
2022/10/14 00:04:41;;;;;;;;;;;;;;;;;;351500;28;881;-65
2022/10/14 00:04:52;;;;;;;;;;;;;;;;;;351427;28;967;-65
2022/10/14 00:05:02;;;;;;;;;;;;;;;;;;351472;28;960;-65
2022/10/14 00:05:12;;;;;;;;;;;;;;;;;;351485;28;1013;-65
2022/10/14 00:05:22;;;;;;;;;;;;;;;;;;351465;28;924;-65
2022/10/14 00:05:32;;;;;;;;;;;;;;;;;;351516;28;825;-65
2022/10/14 00:05:43;;;;;;;;;;;;;;;;;;351510;28;888;-65
2022/10/14 00:05:53;;;;;;;;;;;;;;;;;;351439;28;917;-65
2022/10/14 00:06:05;;;;;;;;;;;;;;;;;;351415;28;908;-65
2022/10/14 00:06:16;;;;;;;;;;;;;;;;;;351436;28;995;-65
2022/10/14 00:06:28;;;;;;;;;;;;;;;;;;351463;28;1035;-64
2022/10/14 00:06:38;;;;;;;;;;;;;;;;;;351435;28;1034;-65
2022/10/14 00:06:48;;;;;;;;;;;;;;;;;;351475;28;841;-65
2022/10/14 00:06:59;;;;;;;;;;;;;;;;;;351425;28;897;-66
2022/10/14 00:07:09;;;;;;;;;;;;;;;;;;351467;28;793;-65
2022/10/14 00:07:19;;;;;;;;;;;;;;;;;;351301;28;1476;-65
2022/10/14 00:07:29;;;;;;;;;;;;;;;;;;351295;28;1543;-65
2022/10/14 00:07:39;;;;;;;;;;;;;;;;;;351415;28;1557;-65
2022/10/14 00:07:50;;;;;;;;;;;;;;;;;;351439;28;905;-65
2022/10/14 00:08:00;;;;;;;;;;;;;;;;;;351501;28;995;-65
2022/10/14 00:08:10;;;;;;;;;;;;;;;;;;351499;28;785;-65
2022/10/14 00:08:20;;;;;;;;;;;;;;;;;;351425;28;935;-65
2022/10/14 00:08:31;;;;;;;;;;;;;;;;;;351452;28;920;-65
2022/10/14 00:08:42;;;;;;;;;;;;;;;;;;351418;28;1007;-65
2022/10/14 00:08:52;;;;;;;;;;;;;;;;;;351529;28;1051;-65
2022/10/14 00:09:04;;;;;;;;;;;;;;;;;;351482;28;1541;-65
2022/10/14 00:09:14;;;;;;;;;;;;;;;;;;350068;28;1763;-65
2022/10/14 00:09:25;;;;;;;;;;;;;;;;;;351427;28;1015;-65
2022/10/14 00:09:35;;;;;;;;;;;;;;;;;;351434;28;869;-65
2022/10/14 00:09:45;;;;;;;;;;;;;;;;;;351486;28;990;-65
2022/10/14 00:09:55;;;;;;;;;;;;;;;;;;351461;28;937;-65
2022/10/14 00:10:06;;;;;;;;;;;;;;;;;;351456;28;1012;-65
2022/10/14 00:10:16;;;;;;;;;;;;;;;;;;351479;28;948;-65
2022/10/14 00:10:27;;;;;;;;;;;;;;;;;;351350;28;1141;-65
2022/10/14 00:10:38;;;;;;;;;;;;;;;;;;351515;28;774;-65
2022/10/14 00:10:48;;;;;;;;;;;;;;;;;;351486;28;1011;-65
2022/10/14 00:11:02;;;;;;;;;;;;;;;;;;351404;28;999;-65
2022/10/14 00:11:17;;;;;;;;;;;;;;;;;;351438;28;928;-65
2022/10/14 00:11:29;;;;;;;;;;;;;;;;;;351413;28;968;-65
2022/10/14 00:11:40;;;;;;;;;;;;;;;;;;351449;28;893;-65
2022/10/14 00:11:50;;;;;;;;;;;;;;;;;;351491;28;798;-65
2022/10/14 00:12:00;;;;;;;;;;;;;;;;;;351476;28;923;-65
2022/10/14 00:12:10;;;;;;;;;;;;;;;;;;351478;28;840;-65
2022/10/14 00:12:20;;;;;;;;;;;;;;;;;;351472;28;920;-66
2022/10/14 00:12:32;;;;;;;;;;;;;;;;;;351431;28;920;-65
2022/10/14 00:12:42;;;;;;;;;;;;;;;;;;351493;28;1182;-65
2022/10/14 00:12:52;;;;;;;;;;;;;;;;;;351482;28;959;-65
2022/10/14 00:13:02;;;;;;;;;;;;;;;;;;351460;28;1015;-65
2022/10/14 00:13:12;;;;;;;;;;;;;;;;;;351456;28;852;-65
2022/10/14 00:13:23;;;;;;;;;;;;;;;;;;351451;28;893;-65
2022/10/14 00:13:33;;;;;;;;;;;;;;;;;;351486;28;834;-65
2022/10/14 00:13:44;;;;;;;;;;;;;;;;;;351478;28;995;-65
2022/10/14 00:13:55;;;;;;;;;;;;;;;;;;351437;28;1002;-65
2022/10/14 00:14:07;;;;;;;;;;;;;;;;;;351411;28;1670;-65
2022/10/14 00:14:19;;;;;;;;;;;;;;;;;;351382;28;1094;-65
2022/10/14 00:14:29;;;;;;;;;;;;;;;;;;351334;28;1320;-65
2022/10/14 00:14:39;;;;;;;;;;;;;;;;;;351450;28;983;-65
2022/10/14 00:14:49;;;;;;;;;;;;;;;;;;351435;28;928;-65
2022/10/14 00:14:59;;;;;;;;;;;;;;;;;;351474;28;841;-65
2022/10/14 00:15:10;;;;;;;;;;;;;;;;;;351472;28;924;-65
2022/10/14 00:15:20;;;;;;;;;;;;;;;;;;351514;28;928;-65
2022/10/14 00:15:30;;;;;;;;;;;;;;;;;;351437;28;1549;-65
2022/10/14 00:15:40;;;;;;;;;;;;;;;;;;351414;28;1003;-65
2022/10/14 00:15:50;;;;;;;;;;;;;;;;;;351494;28;983;-65
2022/10/14 00:16:01;;;;;;;;;;;;;;;;;;351465;28;963;-65
2022/10/14 00:16:17;;;;;;;;;;;;;;;;;;351486;28;940;-65
2022/10/14 00:16:28;;;;;;;;;;;;;;;;;;351388;28;1909;-65
2022/10/14 00:16:39;;;;;;;;;;;;;;;;;;351377;28;916;-65
2022/10/14 00:16:51;;;;;;;;;;;;;;;;;;351476;28;992;-65
2022/10/14 00:17:02;;;;;;;;;;;;;;;;;;350660;28;1563;-65
2022/10/14 00:17:12;;;;;;;;;;;;;;;;;;349838;28;1511;-65
2022/10/14 00:17:22;;;;;;;;;;;;;;;;;;350152;28;995;-66
2022/10/14 00:17:32;;;;;;;;;;;;;;;;;;350499;28;1576;-65
2022/10/14 00:17:42;;;;;;;;;;;;;;;;;;350069;28;924;-65
2022/10/14 00:17:53;;;;;;;;;;;;;;;;;;350080;28;949;-65
2022/10/14 00:18:03;;;;;;;;;;;;;;;;;;350030;28;861;-65
2022/10/14 00:18:13;;;;;;;;;;;;;;;;;;350093;28;991;-65
2022/10/14 00:18:23;;;;;;;;;;;;;;;;;;350057;28;1034;-65
2022/10/14 00:18:33;;;;;;;;;;;;;;;;;;350688;28;1580;-65
2022/10/14 00:18:44;;;;;;;;;;;;;;;;;;351429;28;845;-65
2022/10/14 00:18:55;;;;;;;;;;;;;;;;;;351452;28;850;-65
2022/10/14 00:19:06;;;;;;;;;;;;;;;;;;351489;28;975;-65
2022/10/14 00:19:17;;;;;;;;;;;;;;;;;;351461;28;916;-65
2022/10/14 00:19:27;;;;;;;;;;;;;;;;;;351475;28;1603;-65
2022/10/14 00:19:37;;;;;;;;;;;;;;;;;;351170;28;1610;-65
2022/10/14 00:19:48;;;;;;;;;;;;;;;;;;351468;28;924;-65
2022/10/14 00:19:58;;;;;;;;;;;;;;;;;;351543;28;793;-65
2022/10/14 00:20:09;;;;;;;;;;;;;;;;;;351378;28;818;-65
2022/10/14 00:20:19;;;;;;;;;;;;;;;;;;351468;28;916;-65
2022/10/14 00:20:29;;;;;;;;;;;;;;;;;;351445;28;784;-65
2022/10/14 00:20:39;;;;;;;;;;;;;;;;;;351463;28;896;-65
2022/10/14 00:20:54;;;;;;;;;;;;;;;;;;351400;28;825;-65
2022/10/14 00:21:04;;;;;;;;;;;;;;;;;;351421;28;908;-65
2022/10/14 00:21:15;;;;;;;;;;;;;;;;;;351406;28;1012;-65
2022/10/14 00:21:26;;;;;;;;;;;;;;;;;;351467;28;912;-65
2022/10/14 00:21:37;;;;;;;;;;;;;;;;;;351477;28;995;-65
2022/10/14 00:21:47;;;;;;;;;;;;;;;;;;351454;28;964;-65
2022/10/14 00:21:57;;;;;;;;;;;;;;;;;;350691;28;2062;-65
2022/10/14 00:22:07;;;;;;;;;;;;;;;;;;350728;28;1842;-65
2022/10/14 00:22:18;;;;;;;;;;;;;;;;;;351791;28;916;-65
2022/10/14 00:22:28;;;;;;;;;;;;;;;;;;350480;28;1567;-65
2022/10/14 00:22:38;;;;;;;;;;;;;;;;;;351289;28;1444;-65
2022/10/14 00:22:48;;;;;;;;;;;;;;;;;;351435;28;975;-65
2022/10/14 00:22:58;;;;;;;;;;;;;;;;;;351438;28;722;-65
2022/10/14 00:23:08;;;;;;;;;;;;;;;;;;351399;28;979;-65
2022/10/14 00:23:19;;;;;;;;;;;;;;;;;;351445;28;1026;-65
2022/10/14 00:23:29;;;;;;;;;;;;;;;;;;351489;28;849;-65
2022/10/14 00:23:39;;;;;;;;;;;;;;;;;;351448;28;923;-65
2022/10/14 00:23:49;;;;;;;;;;;;;;;;;;351471;28;924;-65
2022/10/14 00:24:00;;;;;;;;;;;;;;;;;;350340;28;2053;-65
2022/10/14 00:24:11;;;;;;;;;;;;;;;;;;351884;28;1317;-65
2022/10/14 00:24:21;;;;;;;;;;;;;;;;;;351374;28;1553;-65
2022/10/14 00:24:31;;;;;;;;;;;;;;;;;;349997;28;1685;-65
2022/10/14 00:24:41;;;;;;;;;;;;;;;;;;350008;28;917;-65
2022/10/14 00:24:51;;;;;;;;;;;;;;;;;;350013;28;1004;-65
2022/10/14 00:25:02;;;;;;;;;;;;;;;;;;349967;28;984;-65
2022/10/14 00:25:12;;;;;;;;;;;;;;;;;;350011;28;996;-65
2022/10/14 00:25:24;;;;;;;;;;;;;;;;;;350019;28;1024;-65
2022/10/14 00:25:36;;;;;;;;;;;;;;;;;;350061;28;933;-65
2022/10/14 00:25:46;;;;;;;;;;;;;;;;;;349973;28;949;-65
2022/10/14 00:25:56;;;;;;;;;;;;;;;;;;350100;28;798;-65
2022/10/14 00:26:13;;;;;;;;;;;;;;;;;;350040;28;960;-65
2022/10/14 00:26:24;;;;;;;;;;;;;;;;;;350303;28;1597;-65
2022/10/14 00:26:36;;;;;;;;;;;;;;;;;;350088;28;1783;-65
2022/10/14 00:26:46;;;;;;;;;;;;;;;;;;349990;28;991;-65
2022/10/14 00:26:56;;;;;;;;;;;;;;;;;;350039;28;909;-65
2022/10/14 00:27:07;;;;;;;;;;;;;;;;;;350053;28;975;-65
2022/10/14 00:27:17;;;;;;;;;;;;;;;;;;349982;28;913;-65
2022/10/14 00:27:27;;;;;;;;;;;;;;;;;;350093;28;837;-65
2022/10/14 00:27:38;;;;;;;;;;;;;;;;;;350044;28;980;-65
2022/10/14 00:27:48;;;;;;;;;;;;;;;;;;350048;28;964;-66
2022/10/14 00:28:02;;;;;;;;;;;;;;;;;;350073;28;976;-65
2022/10/14 00:28:12;;;;;;;;;;;;;;;;;;350107;28;821;-65
2022/10/14 00:28:22;;;;;;;;;;;;;;;;;;350047;28;896;-65
2022/10/14 00:28:32;;;;;;;;;;;;;;;;;;350043;28;921;-65
2022/10/14 00:28:43;;;;;;;;;;;;;;;;;;350091;28;839;-65
2022/10/14 00:28:53;;;;;;;;;;;;;;;;;;350049;28;909;-65
2022/10/14 00:29:06;;;;;;;;;;;;;;;;;;350357;28;1601;-65
2022/10/14 00:29:17;;;;;;;;;;;;;;;;;;350289;28;1685;-65
2022/10/14 00:29:28;;;;;;;;;;;;;;;;;;351454;28;1568;-65
2022/10/14 00:29:38;;;;;;;;;;;;;;;;;;351390;28;936;-65
2022/10/14 00:29:48;;;;;;;;;;;;;;;;;;351489;28;762;-65
2022/10/14 00:29:58;;;;;;;;;;;;;;;;;;349980;28;984;-65
2022/10/14 00:30:08;;;;;;;;;;;;;;;;;;349961;28;1015;-65
2022/10/14 00:30:19;;;;;;;;;;;;;;;;;;349868;28;937;-65
2022/10/14 00:30:29;;;;;;;;;;;;;;;;;;350008;28;809;-65
2022/10/14 00:30:39;;;;;;;;;;;;;;;;;;349968;28;916;-65
2022/10/14 00:30:56;;;;;;;;;;;;;;;;;;349947;28;1002;-65
2022/10/14 00:31:07;;;;;;;;;;;;;;;;;;349845;28;1659;-65
2022/10/14 00:31:17;;;;;;;;;;;;;;;;;;349821;28;1270;-65
2022/10/14 00:31:28;;;;;;;;;;;;;;;;;;349977;28;995;-65
2022/10/14 00:31:38;;;;;;;;;;;;;;;;;;349931;28;928;-66
2022/10/14 00:31:50;;;;;;;;;;;;;;;;;;349136;28;1383;-65
2022/10/14 00:32:00;;;;;;;;;;;;;;;;;;350806;28;1546;-65
2022/10/14 00:32:11;;;;;;;;;;;;;;;;;;350361;28;927;-65
2022/10/14 00:32:21;;;;;;;;;;;;;;;;;;351470;28;916;-65
2022/10/14 00:32:31;;;;;;;;;;;;;;;;;;351396;28;912;-66
2022/10/14 00:32:41;;;;;;;;;;;;;;;;;;351107;28;1291;-65
2022/10/14 00:32:51;;;;;;;;;;;;;;;;;;351782;28;1343;-65
2022/10/14 00:33:02;;;;;;;;;;;;;;;;;;352835;28;991;-65
2022/10/14 00:33:12;;;;;;;;;;;;;;;;;;352863;28;968;-65
2022/10/14 00:33:23;;;;;;;;;;;;;;;;;;352702;28;852;-65
2022/10/14 00:33:33;;;;;;;;;;;;;;;;;;351522;28;1622;-65
2022/10/14 00:33:43;;;;;;;;;;;;;;;;;;351473;28;968;-65
2022/10/14 00:33:54;;;;;;;;;;;;;;;;;;351482;28;844;-65
2022/10/14 00:34:04;;;;;;;;;;;;;;;;;;351460;28;908;-65
2022/10/14 00:34:15;;;;;;;;;;;;;;;;;;351400;28;960;-65
2022/10/14 00:34:25;;;;;;;;;;;;;;;;;;351466;28;770;-65
2022/10/14 00:34:35;;;;;;;;;;;;;;;;;;351472;28;979;-65
2022/10/14 00:34:45;;;;;;;;;;;;;;;;;;351465;28;837;-65
2022/10/14 00:34:56;;;;;;;;;;;;;;;;;;351477;28;908;-65
2022/10/14 00:35:06;;;;;;;;;;;;;;;;;;351408;28;987;-66
2022/10/14 00:35:16;;;;;;;;;;;;;;;;;;351442;28;1031;-65
2022/10/14 00:35:27;;;;;;;;;;;;;;;;;;351344;28;1626;-65
2022/10/14 00:35:37;;;;;;;;;;;;;;;;;;351389;28;920;-65
2022/10/14 00:35:57;;;;;;;;;;;;;;;;;;351444;28;867;-65
2022/10/14 00:36:07;;;;;;;;;;;;;;;;;;351405;28;996;-65
2022/10/14 00:36:19;;;;;;;;;;;;;;;;;;351447;28;940;-65
2022/10/14 00:36:29;;;;;;;;;;;;;;;;;;351385;28;1910;-65
2022/10/14 00:36:39;;;;;;;;;;;;;;;;;;351477;28;773;-65
2022/10/14 00:36:50;;;;;;;;;;;;;;;;;;351443;28;801;-65
2022/10/14 00:37:00;;;;;;;;;;;;;;;;;;351398;28;886;-65
2022/10/14 00:37:10;;;;;;;;;;;;;;;;;;351488;28;852;-65
2022/10/14 00:37:20;;;;;;;;;;;;;;;;;;351474;28;912;-65
2022/10/14 00:37:31;;;;;;;;;;;;;;;;;;351286;28;976;-65
2022/10/14 00:37:41;;;;;;;;;;;;;;;;;;351446;28;857;-65
2022/10/14 00:37:51;;;;;;;;;;;;;;;;;;351472;28;909;-65
2022/10/14 00:38:01;;;;;;;;;;;;;;;;;;351379;28;1003;-65
2022/10/14 00:38:11;;;;;;;;;;;;;;;;;;351462;28;833;-65
2022/10/14 00:38:22;;;;;;;;;;;;;;;;;;351443;28;991;-66
2022/10/14 00:38:33;;;;;;;;;;;;;;;;;;351410;28;856;-66
2022/10/14 00:38:46;;;;;;;;;;;;;;;;;;351422;28;948;-65
2022/10/14 00:38:56;;;;;;;;;;;;;;;;;;351417;28;932;-65
2022/10/14 00:39:06;;;;;;;;;;;;;;;;;;351445;28;1572;-65
2022/10/14 00:39:17;;;;;;;;;;;;;;;;;;351416;28;920;-65
2022/10/14 00:39:27;;;;;;;;;;;;;;;;;;351425;28;932;-65
2022/10/14 00:39:37;;;;;;;;;;;;;;;;;;351320;28;802;-65
2022/10/14 00:39:47;;;;;;;;;;;;;;;;;;351479;28;999;-65
2022/10/14 00:39:57;;;;;;;;;;;;;;;;;;351463;28;916;-65
2022/10/14 00:40:08;;;;;;;;;;;;;;;;;;351396;28;933;-65
2022/10/14 00:40:18;;;;;;;;;;;;;;;;;;351431;28;904;-65
2022/10/14 00:40:28;;;;;;;;;;;;;;;;;;351437;28;908;-65
2022/10/14 00:40:39;;;;;;;;;;;;;;;;;;351357;28;976;-65
2022/10/14 00:40:49;;;;;;;;;;;;;;;;;;351414;28;948;-65
2022/10/14 00:40:59;;;;;;;;;;;;;;;;;;351446;28;853;-66
2022/10/14 00:41:14;;;;;;;;;;;;;;;;;;351353;28;1577;-65
2022/10/14 00:41:29;;;;;;;;;;;;;;;;;;351435;28;912;-65
2022/10/14 00:41:40;;;;;;;;;;;;;;;;;;351334;28;912;-65
2022/10/14 00:41:50;;;;;;;;;;;;;;;;;;351429;28;848;-65
2022/10/14 00:42:00;;;;;;;;;;;;;;;;;;351455;28;790;-65
2022/10/14 00:42:12;;;;;;;;;;;;;;;;;;351459;28;960;-65
2022/10/14 00:42:23;;;;;;;;;;;;;;;;;;351430;28;857;-65
2022/10/14 00:42:33;;;;;;;;;;;;;;;;;;351399;28;1702;-65
2022/10/14 00:42:43;;;;;;;;;;;;;;;;;;351424;28;794;-65
2022/10/14 00:42:53;;;;;;;;;;;;;;;;;;351429;28;920;-65
2022/10/14 00:43:08;;;;;;;;;;;;;;;;;;351388;28;1008;-65
2022/10/14 00:43:19;;;;;;;;;;;;;;;;;;351411;28;1023;-65
2022/10/14 00:43:49;;;;;;;;;;;;;;;;;;351392;28;971;-65
2022/10/14 00:44:05;;;;;;;;;;;;;;;;;;351378;28;924;-65
2022/10/14 00:44:18;;;;;;;;;;;;;;;;;;350034;28;913;-65
2022/10/14 00:44:28;;;;;;;;;;;;;;;;;;350000;28;913;-65
2022/10/14 00:44:41;;;;;;;;;;;;;;;;;;350000;28;928;-65
2022/10/14 00:44:58;;;;;;;;;;;;;;;;;;350013;28;861;-65
2022/10/14 00:45:13;;;;;;;;;;;;;;;;;;349920;28;1020;-65
2022/10/14 00:45:24;;;;;;;;;;;;;;;;;;350005;28;996;-65
2022/10/14 00:45:34;;;;;;;;;;;;;;;;;;349970;28;948;-65
2022/10/14 00:45:44;;;;;;;;;;;;;;;;;;350009;28;992;-65
2022/10/14 00:45:54;;;;;;;;;;;;;;;;;;350051;28;845;-65
2022/10/14 00:46:08;;;;;;;;;;;;;;;;;;349974;28;1106;-65
2022/10/14 00:46:18;;;;;;;;;;;;;;;;;;349967;28;1015;-65
2022/10/14 00:46:30;;;;;;;;;;;;;;;;;;349947;28;1165;-65
2022/10/14 00:46:41;;;;;;;;;;;;;;;;;;350788;28;1554;-65
2022/10/14 00:46:51;;;;;;;;;;;;;;;;;;351457;28;853;-65
2022/10/14 00:47:01;;;;;;;;;;;;;;;;;;351414;28;789;-65
2022/10/14 00:47:12;;;;;;;;;;;;;;;;;;351428;28;983;-65
2022/10/14 00:47:22;;;;;;;;;;;;;;;;;;351450;28;991;-65
2022/10/14 00:47:32;;;;;;;;;;;;;;;;;;351419;28;952;-65
2022/10/14 00:47:43;;;;;;;;;;;;;;;;;;351357;28;924;-65
2022/10/14 00:47:53;;;;;;;;;;;;;;;;;;351356;28;849;-65
2022/10/14 00:48:04;;;;;;;;;;;;;;;;;;351443;28;790;-65
2022/10/14 00:48:15;;;;;;;;;;;;;;;;;;351374;28;937;-65
2022/10/14 00:48:25;;;;;;;;;;;;;;;;;;351398;28;1612;-65
2022/10/14 00:48:35;;;;;;;;;;;;;;;;;;350134;28;1756;-65
2022/10/14 00:48:46;;;;;;;;;;;;;;;;;;349953;28;1181;-65
2022/10/14 00:48:58;;;;;;;;;;;;;;;;;;350027;28;913;-65
2022/10/14 00:49:30;;;;;;;;;;;;;;;;;;350673;28;1784;-65
2022/10/14 00:49:42;;;;;;;;;;;;;;;;;;351382;28;970;-65
2022/10/14 00:49:52;;;;;;;;;;;;;;;;;;351454;28;848;-65
2022/10/14 00:50:02;;;;;;;;;;;;;;;;;;351340;28;1012;-65
2022/10/14 00:50:14;;;;;;;;;;;;;;;;;;351420;28;963;-65
2022/10/14 00:50:24;;;;;;;;;;;;;;;;;;351193;28;1606;-65
2022/10/14 00:50:35;;;;;;;;;;;;;;;;;;349993;28;1086;-65
2022/10/14 00:50:47;;;;;;;;;;;;;;;;;;350006;28;783;-65
2022/10/14 00:50:57;;;;;;;;;;;;;;;;;;350054;28;793;-65
2022/10/14 00:51:07;;;;;;;;;;;;;;;;;;350031;28;942;-65
2022/10/14 00:51:18;;;;;;;;;;;;;;;;;;349926;28;836;-65
2022/10/14 00:51:28;;;;;;;;;;;;;;;;;;350018;28;968;-65
2022/10/14 00:51:39;;;;;;;;;;;;;;;;;;349970;28;924;-65
2022/10/14 00:51:51;;;;;;;;;;;;;;;;;;350012;28;987;-65
2022/10/14 00:52:15;;;;;;;;;;;;;;;;;;349960;28;865;-65
2022/10/14 00:52:25;;;;;;;;;;;;;;;;;;352506;28;863;-65
2022/10/14 00:52:36;;;;;;;;;;;;;;;;;;351022;28;1456;-65
2022/10/14 00:52:46;;;;;;;;;;;;;;;;;;351366;28;1074;-65
2022/10/14 00:52:57;;;;;;;;;;;;;;;;;;351431;28;936;-65
2022/10/14 00:53:09;;;;;;;;;;;;;;;;;;351426;28;924;-65
2022/10/14 00:53:19;;;;;;;;;;;;;;;;;;351467;28;983;-65
2022/10/14 00:53:30;;;;;;;;;;;;;;;;;;351414;28;920;-65
2022/10/14 00:53:41;;;;;;;;;;;;;;;;;;351426;28;1059;-65
2022/10/14 00:53:51;;;;;;;;;;;;;;;;;;351402;28;858;-65
2022/10/14 00:54:02;;;;;;;;;;;;;;;;;;351413;28;1086;-65
2022/10/14 00:54:14;;;;;;;;;;;;;;;;;;350441;28;1447;-65
2022/10/14 00:54:33;;;;;;;;;;;;;;;;;;351778;28;1256;-65
2022/10/14 00:54:47;;;;;;;;;;;;;;;;;;351404;28;806;-65
2022/10/14 00:55:04;;;;;;;;;;;;;;;;;;351404;28;896;-65
2022/10/14 00:55:16;;;;;;;;;;;;;;;;;;351424;28;1007;-65
2022/10/14 00:55:27;;;;;;;;;;;;;;;;;;351334;28;1119;-65
2022/10/14 00:55:37;;;;;;;;;;;;;;;;;;351422;28;996;-65
2022/10/14 00:55:48;;;;;;;;;;;;;;;;;;351402;28;1006;-65
2022/10/14 00:55:58;;;;;;;;;;;;;;;;;;351338;28;1011;-66
2022/10/14 00:56:09;;;;;;;;;;;;;;;;;;351416;28;793;-65
2022/10/14 00:56:22;;;;;;;;;;;;;;;;;;351395;28;1042;-65
2022/10/14 00:56:33;;;;;;;;;;;;;;;;;;351305;28;1917;-65
2022/10/14 00:56:43;;;;;;;;;;;;;;;;;;351447;28;1776;-65
2022/10/14 00:56:54;;;;;;;;;;;;;;;;;;351430;28;841;-65
2022/10/14 00:57:04;;;;;;;;;;;;;;;;;;351385;28;990;-65
2022/10/14 00:57:15;;;;;;;;;;;;;;;;;;351296;28;1619;-65
2022/10/14 00:57:26;;;;;;;;;;;;;;;;;;349887;28;1654;-65
2022/10/14 00:57:37;;;;;;;;;;;;;;;;;;351254;28;1838;-65
2022/10/14 00:57:47;;;;;;;;;;;;;;;;;;351350;28;1423;-65
2022/10/14 00:57:57;;;;;;;;;;;;;;;;;;351409;28;967;-65
2022/10/14 00:58:08;;;;;;;;;;;;;;;;;;351399;28;872;-66
2022/10/14 00:58:18;;;;;;;;;;;;;;;;;;351396;28;837;-65
2022/10/14 00:58:29;;;;;;;;;;;;;;;;;;351384;28;861;-65
2022/10/14 00:58:39;;;;;;;;;;;;;;;;;;351324;28;1133;-65
2022/10/14 00:58:50;;;;;;;;;;;;;;;;;;351427;28;916;-65
2022/10/14 00:59:02;;;;;;;;;;;;;;;;;;351392;28;983;-65
2022/10/14 00:59:13;;;;;;;;;;;;;;;;;;351197;28;1007;-65
2022/10/14 00:59:23;;;;;;;;;;;;;;;;;;351256;28;1639;-65
2022/10/14 00:59:33;;;;;;;;;;;;;;;;;;351413;28;897;-65
2022/10/14 00:59:44;;;;;;;;;;;;;;;;;;351354;28;909;-65
2022/10/14 00:59:58;;;;;;;;;;;;;;;;;;351400;28;1011;-66
2022/10/14 01:00:11;;;;;;;;;;;;;;;;;;351433;28;916;-65
2022/10/14 01:00:21;;;;;;;;;;;;;;;;;;351282;28;1079;-65
2022/10/14 01:00:32;;;;;;;;;;;;;;;;;;351360;28;1616;-65
2022/10/14 01:00:42;;;;;;;;;;;;;;;;;;351440;28;995;-65
2022/10/14 01:00:52;;;;;;;;;;;;;;;;;;351382;28;927;-65
2022/10/14 01:01:02;;;;;;;;;;;;;;;;;;351447;28;849;-65
2022/10/14 01:01:13;;;;;;;;;;;;;;;;;;351418;28;825;-65
2022/10/14 01:01:23;;;;;;;;;;;;;;;;;;349807;28;1350;-65
2022/10/14 01:01:33;;;;;;;;;;;;;;;;;;349992;28;933;-65
2022/10/14 01:01:44;;;;;;;;;;;;;;;;;;350002;28;913;-65
2022/10/14 01:01:54;;;;;;;;;;;;;;;;;;349957;28;901;-66
2022/10/14 01:02:04;;;;;;;;;;;;;;;;;;350025;28;842;-65
2022/10/14 01:02:14;;;;;;;;;;;;;;;;;;350030;28;921;-65
2022/10/14 01:02:24;;;;;;;;;;;;;;;;;;349937;28;873;-65
2022/10/14 01:02:35;;;;;;;;;;;;;;;;;;349984;28;909;-65
2022/10/14 01:02:46;;;;;;;;;;;;;;;;;;350023;28;925;-65
2022/10/14 01:02:56;;;;;;;;;;;;;;;;;;349937;28;979;-65
2022/10/14 01:03:08;;;;;;;;;;;;;;;;;;350000;28;924;-65
2022/10/14 01:03:20;;;;;;;;;;;;;;;;;;349996;28;944;-65
2022/10/14 01:03:31;;;;;;;;;;;;;;;;;;349956;28;971;-65
2022/10/14 01:03:41;;;;;;;;;;;;;;;;;;350060;28;984;-65
2022/10/14 01:03:52;;;;;;;;;;;;;;;;;;349939;28;887;-65
2022/10/14 01:04:02;;;;;;;;;;;;;;;;;;350264;28;1596;-65
2022/10/14 01:04:12;;;;;;;;;;;;;;;;;;350115;28;1804;-65
2022/10/14 01:04:23;;;;;;;;;;;;;;;;;;351286;28;1814;-65
2022/10/14 01:04:36;;;;;;;;;;;;;;;;;;350874;28;1339;-65
2022/10/14 01:04:46;;;;;;;;;;;;;;;;;;350161;28;861;-65
2022/10/14 01:04:56;;;;;;;;;;;;;;;;;;350001;28;929;-65
2022/10/14 01:05:08;;;;;;;;;;;;;;;;;;350018;28;980;-65
2022/10/14 01:05:19;;;;;;;;;;;;;;;;;;349982;28;838;-65
2022/10/14 01:05:31;;;;;;;;;;;;;;;;;;350032;28;921;-65
2022/10/14 01:05:47;;;;;;;;;;;;;;;;;;349972;28;893;-65
2022/10/14 01:06:03;;;;;;;;;;;;;;;;;;350018;28;861;-65
2022/10/14 01:06:32;;;;;;;;;;;;;;;;;;349989;28;1011;-65
2022/10/14 01:06:45;;;;;;;;;;;;;;;;;;349927;28;972;-65
2022/10/14 01:07:01;;;;;;;;;;;;;;;;;;349989;28;901;-65
2022/10/14 01:07:20;;;;;;;;;;;;;;;;;;350003;28;825;-65
2022/10/14 01:07:39;;;;;;;;;;;;;;;;;;349978;28;936;-65
2022/10/14 01:07:55;;;;;;;;;;;;;;;;;;350013;28;1216;-65
2022/10/14 01:08:11;;;;;;;;;;;;;;;;;;350029;28;852;-65
2022/10/14 01:08:26;;;;;;;;;;;;;;;;;;349968;28;854;-65
2022/10/14 01:08:42;;;;;;;;;;;;;;;;;;350016;28;908;-65
2022/10/14 01:08:58;;;;;;;;;;;;;;;;;;350019;28;933;-65
2022/10/14 01:09:21;;;;;;;;;;;;;;;;;;351153;28;1631;-65
2022/10/14 01:09:42;;;;;;;;;;;;;;;;;;351382;28;1763;-65
2022/10/14 01:09:57;;;;;;;;;;;;;;;;;;351405;28;952;-65
2022/10/14 01:10:23;;;;;;;;;;;;;;;;;;351400;28;900;-65
2022/10/14 01:10:33;;;;;;;;;;;;;;;;;;351434;28;883;-65
2022/10/14 01:10:43;;;;;;;;;;;;;;;;;;351389;28;960;-65
2022/10/14 01:11:01;;;;;;;;;;;;;;;;;;351330;28;913;-65
2022/10/14 01:11:28;;;;;;;;;;;;;;;;;;351376;28;865;-65
2022/10/14 01:11:44;;;;;;;;;;;;;;;;;;351395;28;975;-65
2022/10/14 01:12:09;;;;;;;;;;;;;;;;;;351397;28;901;-65
2022/10/14 01:12:35;;;;;;;;;;;;;;;;;;351438;28;829;-65
2022/10/14 01:12:49;;;;;;;;;;;;;;;;;;351352;28;916;-65
2022/10/14 01:13:21;;;;;;;;;;;;;;;;;;351318;28;925;-65
2022/10/14 01:13:32;;;;;;;;;;;;;;;;;;351371;28;864;-65
2022/10/14 01:13:47;;;;;;;;;;;;;;;;;;351336;28;1581;-65
2022/10/14 01:14:15;;;;;;;;;;;;;;;;;;351376;28;1603;-65
2022/10/14 01:14:30;;;;;;;;;;;;;;;;;;351367;28;936;-65
2022/10/14 01:14:41;;;;;;;;;;;;;;;;;;351391;28;1055;-65
2022/10/14 01:15:03;;;;;;;;;;;;;;;;;;351373;28;1094;-65
2022/10/14 01:15:19;;;;;;;;;;;;;;;;;;351396;28;1040;-65
2022/10/14 01:15:30;;;;;;;;;;;;;;;;;;351348;28;801;-65
2022/10/14 01:15:47;;;;;;;;;;;;;;;;;;351447;28;841;-65
2022/10/14 01:16:00;;;;;;;;;;;;;;;;;;351393;28;960;-65
2022/10/14 01:16:19;;;;;;;;;;;;;;;;;;351389;28;1541;-65
2022/10/14 01:16:38;;;;;;;;;;;;;;;;;;351341;28;1913;-65
2022/10/14 01:16:56;;;;;;;;;;;;;;;;;;350364;28;1414;-65
2022/10/14 01:17:12;;;;;;;;;;;;;;;;;;349922;28;929;-65
2022/10/14 01:17:29;;;;;;;;;;;;;;;;;;350011;28;833;-65
2022/10/14 01:17:48;;;;;;;;;;;;;;;;;;349970;28;983;-65
2022/10/14 01:18:17;;;;;;;;;;;;;;;;;;349993;28;802;-65
2022/10/14 01:18:52;;;;;;;;;;;;;;;;;;350330;28;1616;-65
2022/10/14 01:19:22;;;;;;;;;;;;;;;;;;350606;28;1754;-65
2022/10/14 01:20:03;;;;;;;;;;;;;;;;;;347039;28;1192;-65
2022/10/14 01:20:14;;;;;;;;;;;;;;;;;;351386;28;984;-65
2022/10/14 01:20:39;;;;;;;;;;;;;;;;;;351318;28;1377;-65
2022/10/14 01:21:01;;;;;;;;;;;;;;;;;;349919;28;1779;-65
2022/10/14 01:21:23;;;;;;;;;;;;;;;;;;349943;28;897;-65
2022/10/14 01:21:52;;;;;;;;;;;;;;;;;;349979;28;1640;-65
2022/10/14 01:22:13;;;;;;;;;;;;;;;;;;349948;28;917;-65
2022/10/14 01:22:23;;;;;;;;;;;;;;;;;;349980;28;821;-64
2022/10/14 01:22:36;;;;;;;;;;;;;;;;;;350484;28;1696;-65
2022/10/14 01:22:57;;;;;;;;;;;;;;;;;;349930;28;924;-65
2022/10/14 01:23:26;;;;;;;;;;;;;;;;;;349988;28;1490;-65
2022/10/14 01:23:45;;;;;;;;;;;;;;;;;;349904;28;1015;-65
2022/10/14 01:24:12;;;;;;;;;;;;;;;;;;350502;28;1522;-65
2022/10/14 01:24:28;;;;;;;;;;;;;;;;;;351360;28;860;-65
2022/10/14 01:25:01;;;;;;;;;;;;;;;;;;351142;28;1468;-65
2022/10/14 01:25:14;;;;;;;;;;;;;;;;;;351319;28;1509;-65
2022/10/14 01:25:29;;;;;;;;;;;;;;;;;;351319;28;983;-65
2022/10/14 01:25:57;;;;;;;;;;;;;;;;;;351355;28;960;-65
2022/10/14 01:26:13;;;;;;;;;;;;;;;;;;351371;28;778;-65
2022/10/14 01:26:26;;;;;;;;;;;;;;;;;;351360;28;995;-65
2022/10/14 01:26:55;;;;;;;;;;;;;;;;;;351385;28;924;-65
2022/10/14 01:27:18;;;;;;;;;;;;;;;;;;350326;28;1768;-65
2022/10/14 01:27:41;;;;;;;;;;;;;;;;;;350526;28;1620;-65
2022/10/14 01:27:51;;;;;;;;;;;;;;;;;;351381;28;991;-65
2022/10/14 01:28:10;;;;;;;;;;;;;;;;;;351328;28;1008;-65
2022/10/14 01:28:20;;;;;;;;;;;;;;;;;;351363;28;932;-65
2022/10/14 01:28:49;;;;;;;;;;;;;;;;;;351337;28;943;-65